createdAt,value
2022-11-28T00:14:33.252Z,3.7
2022-11-28T00:30:08.349Z,3.3
2022-11-28T00:45:49.289Z,3.9
2022-11-28T01:01:24.719Z,3.2
2022-11-28T01:17:00.020Z,3.7
2022-11-28T01:32:40.438Z,4
2022-11-28T01:48:15.577Z,4.1
2022-11-28T02:03:50.674Z,4.3
2022-11-28T02:19:25.789Z,5
2022-11-28T02:35:00.898Z,3.9
2022-11-28T02:50:35.991Z,3.4
2022-11-28T03:06:11.091Z,3.6
2022-11-28T03:21:46.188Z,4.4
2022-11-28T03:37:21.299Z,4.1
2022-11-28T03:52:56.406Z,2.8
2022-11-28T04:08:31.503Z,2.8
2022-11-28T04:24:06.591Z,2.7
2022-11-28T04:39:41.680Z,2.4
2022-11-28T04:55:16.778Z,2.6
2022-11-28T05:10:51.882Z,2.6
2022-11-28T05:26:26.962Z,2.2
2022-11-28T05:42:02.069Z,2.1
2022-11-28T05:57:37.187Z,2.8
2022-11-28T06:13:12.196Z,1.8
2022-11-28T06:28:47.294Z,1.9
2022-11-28T06:44:22.379Z,3.2
2022-11-28T06:59:57.473Z,3.2
2022-11-28T07:15:32.662Z,3.4
2022-11-28T07:31:07.647Z,3.1
2022-11-28T07:46:42.765Z,4.1
2022-11-28T08:02:17.800Z,3.7
2022-11-28T08:17:52.994Z,3.2
2022-11-28T08:33:27.627Z,2.9
2022-11-28T08:49:04.337Z,3.7
2022-11-28T09:04:39.324Z,3.2
2022-11-28T09:20:13.999Z,3.5
2022-11-28T09:35:48.613Z,3.6
2022-11-28T09:51:23.207Z,5
2022-11-28T10:06:57.838Z,3.7
2022-11-28T10:22:32.518Z,3.5
2022-11-28T10:38:07.175Z,4.5
2022-11-28T10:53:41.802Z,3.4
2022-11-28T11:09:16.497Z,3.7
2022-11-28T11:24:51.251Z,3.1
2022-11-28T11:40:25.883Z,4.6
2022-11-28T11:56:00.491Z,4.3
2022-11-28T12:11:35.209Z,4.7
2022-11-28T12:27:09.903Z,4.4
2022-11-28T12:42:44.596Z,4.4
2022-11-28T12:58:19.426Z,4.6
2022-11-28T13:13:54.122Z,4.8
2022-11-28T13:29:28.741Z,3.9
2022-11-28T13:45:03.373Z,4
2022-11-28T14:00:38.124Z,3.6
2022-11-28T14:16:12.953Z,4.2
2022-11-28T14:32:06.916Z,4.2
2022-11-28T14:48:05.345Z,3.7
2022-11-28T15:03:40.321Z,3.6
2022-11-28T15:19:14.976Z,3.2
2022-11-28T15:34:49.711Z,4.2
2022-11-28T15:50:24.386Z,3.1
2022-11-28T16:05:59.000Z,4.3
2022-11-28T16:21:33.651Z,4.2
2022-11-28T16:37:08.252Z,3.8
2022-11-28T16:52:42.855Z,3.2
